Time;durP1;ratioP1;P1;durP2;ratioP2;P2;SDS_P1;SDS_P2;PMS_P1;PMS_P2;Temp;Humidity;BMP_temperature;BMP_pressure;BME280_temperature;BME280_humidity;BME280_pressure;Samples;Min_cycle;Max_cycle;Signal;HPM_P1;HPM_P2
2024/02/22 00:02:19;;;;;;;10.02;6.32;;;;;;;11.84;100.00;99983.19;5251008;28;20107;-80
2024/02/22 00:04:50;;;;;;;11.35;6.80;;;;;;;11.80;100.00;99989.97;5255336;28;20032;-76
2024/02/22 00:07:20;;;;;;;11.75;6.20;;;;;;;11.89;100.00;99986.97;5255974;28;20024;-76
2024/02/22 00:09:53;;;;;;;11.13;6.43;;;;;;;11.93;100.00;99976.66;5254396;28;20067;-77
2024/02/22 00:12:23;;;;;;;9.57;6.05;;;;;;;11.87;100.00;99962.16;5254972;28;20032;-76
2024/02/22 00:14:54;;;;;;;13.80;6.55;;;;;;;11.87;100.00;99959.47;5250683;28;20024;-77
2024/02/22 00:17:25;;;;;;;10.88;5.85;;;;;;;11.91;100.00;99957.22;5254689;28;20036;-76
2024/02/22 00:19:55;;;;;;;9.93;6.40;;;;;;;11.92;100.00;99959.69;5256388;28;20028;-76
2024/02/22 00:22:26;;;;;;;7.78;5.47;;;;;;;11.79;100.00;99948.81;5254965;28;20077;-76
2024/02/22 00:24:57;;;;;;;10.45;5.80;;;;;;;11.77;100.00;99950.88;5256161;28;20036;-76
2024/02/22 00:27:28;;;;;;;9.85;5.68;;;;;;;11.92;100.00;99940.88;5252632;28;20036;-77
2024/02/22 00:29:59;;;;;;;9.45;5.95;;;;;;;11.96;100.00;99922.50;5253113;28;20032;-76
2024/02/22 00:32:29;;;;;;;8.60;5.03;;;;;;;11.79;100.00;99926.50;5257645;28;20028;-80
2024/02/22 00:34:59;;;;;;;7.53;4.68;;;;;;;11.83;100.00;99917.03;5252423;28;20487;-77
2024/02/22 00:37:30;;;;;;;12.73;5.32;;;;;;;11.96;100.00;99916.31;5259327;28;20410;-77
2024/02/22 00:40:03;;;;;;;7.55;5.13;;;;;;;11.98;100.00;99908.88;5255488;28;20040;-76
2024/02/22 00:42:34;;;;;;;7.32;4.78;;;;;;;12.01;100.00;99919.22;5256251;28;20016;-76
2024/02/22 00:45:05;;;;;;;8.75;5.18;;;;;;;11.92;100.00;99915.88;5256233;28;20036;-76
2024/02/22 00:47:35;;;;;;;6.78;5.22;;;;;;;11.90;100.00;99913.38;5256569;28;20035;-80
2024/02/22 00:50:08;;;;;;;8.38;5.63;;;;;;;11.94;100.00;99905.75;5255086;28;20023;-76
2024/02/22 00:52:38;;;;;;;9.38;5.70;;;;;;;11.98;100.00;99904.31;5255954;28;20026;-76
2024/02/22 00:55:09;;;;;;;7.68;5.13;;;;;;;12.02;100.00;99897.53;5256275;28;20584;-76
2024/02/22 00:57:39;;;;;;;10.13;5.78;;;;;;;12.08;100.00;99890.53;5254129;28;20024;-76
2024/02/22 01:00:11;;;;;;;8.77;5.80;;;;;;;11.98;100.00;99888.19;5251817;28;20382;-79
2024/02/22 01:02:41;;;;;;;8.48;5.93;;;;;;;12.06;100.00;99876.47;5258925;28;20681;-76
2024/02/22 01:05:12;;;;;;;9.73;5.10;;;;;;;12.10;100.00;99877.72;5253628;28;20024;-78
2024/02/22 01:07:42;;;;;;;7.47;5.05;;;;;;;12.04;100.00;99871.25;5259069;28;20024;-76
2024/02/22 01:10:13;;;;;;;8.18;5.43;;;;;;;12.09;100.00;99873.34;5253057;28;20013;-76
2024/02/22 01:12:43;;;;;;;7.43;5.10;;;;;;;12.10;100.00;99881.25;5258927;28;20476;-76
2024/02/22 01:15:14;;;;;;;9.95;6.10;;;;;;;12.12;100.00;99867.59;5256220;28;20020;-79
2024/02/22 01:17:45;;;;;;;9.75;5.13;;;;;;;12.13;100.00;99858.50;5254765;28;20027;-76
2024/02/22 01:20:15;;;;;;;8.68;4.85;;;;;;;12.16;100.00;99858.09;5256616;28;20432;-76
2024/02/22 01:22:46;;;;;;;7.75;5.03;;;;;;;12.14;100.00;99852.91;5256485;28;20054;-75
2024/02/22 01:25:16;;;;;;;10.55;4.88;;;;;;;12.19;100.00;99857.69;5252369;28;20058;-76
2024/02/22 01:27:47;;;;;;;9.13;5.38;;;;;;;12.20;100.00;99845.91;5253664;28;20039;-82
2024/02/22 01:30:17;;;;;;;9.40;4.85;;;;;;;12.30;100.00;99842.81;5252404;28;20829;-76
2024/02/22 01:32:48;;;;;;;8.02;5.03;;;;;;;12.21;100.00;99844.88;5257006;28;20024;-76
2024/02/22 01:35:18;;;;;;;9.48;4.90;;;;;;;12.22;100.00;99846.53;5251321;28;20378;-80
2024/02/22 01:37:49;;;;;;;8.13;4.43;;;;;;;12.25;100.00;99842.59;5256111;28;20153;-78
2024/02/22 01:40:19;;;;;;;12.82;5.05;;;;;;;12.32;100.00;99840.78;5257075;28;20020;-75
2024/02/22 01:42:50;;;;;;;9.48;5.28;;;;;;;12.25;100.00;99839.91;5249706;28;20028;-78
2024/02/22 01:45:21;;;;;;;9.05;5.07;;;;;;;12.32;100.00;99846.97;5256896;28;20019;-81
2024/02/22 01:47:52;;;;;;;10.13;5.72;;;;;;;12.34;100.00;99836.84;5252390;28;20024;-76
2024/02/22 01:50:23;;;;;;;7.28;5.00;;;;;;;12.29;100.00;99836.63;5256839;28;20674;-78
2024/02/22 01:52:53;;;;;;;9.20;5.00;;;;;;;12.40;100.00;99832.53;5253464;28;20112;-77
2024/02/22 01:55:25;;;;;;;8.05;5.15;;;;;;;12.44;100.00;99829.22;5253421;28;20016;-76
2024/02/22 01:57:55;;;;;;;7.75;4.93;;;;;;;12.38;100.00;99823.81;5252969;28;20020;-77
2024/02/22 02:00:27;;;;;;;10.45;5.32;;;;;;;12.35;100.00;99824.22;5253206;28;20020;-76
2024/02/22 02:02:59;;;;;;;10.68;4.97;;;;;;;12.38;100.00;99808.50;5252313;28;20119;-76
2024/02/22 02:05:30;;;;;;;8.27;5.07;;;;;;;12.38;100.00;99821.13;5252769;28;20077;-76
2024/02/22 02:08:01;;;;;;;9.95;5.10;;;;;;;12.39;100.00;99802.09;5255242;28;20549;-76
2024/02/22 02:10:31;;;;;;;10.00;5.05;;;;;;;12.17;100.00;99800.59;5255886;28;20460;-77
2024/02/22 02:13:03;;;;;;;7.13;5.15;;;;;;;12.40;100.00;99797.56;5254020;28;20032;-75
2024/02/22 02:15:34;;;;;;;7.45;4.85;;;;;;;12.43;100.00;99795.28;5251651;28;20059;-76
2024/02/22 02:18:05;;;;;;;10.68;4.70;;;;;;;12.45;100.00;99797.78;5252001;28;20745;-75
2024/02/22 02:20:47;;;;;;;8.75;5.20;;;;;;;12.51;100.00;99791.59;5254693;28;20105;-81
2024/02/22 02:23:47;;;;;;;12.93;4.93;;;;;;;12.49;100.00;99790.94;5249201;28;20398;-76
2024/02/22 02:26:18;;;;;;;9.90;5.20;;;;;;;12.51;100.00;99782.69;5251291;28;20111;-79
2024/02/22 02:28:50;;;;;;;12.10;5.18;;;;;;;12.43;100.00;99775.63;5257435;28;20111;-76
2024/02/22 02:31:20;;;;;;;10.90;4.70;;;;;;;12.46;100.00;99772.53;5253063;28;20028;-76
2024/02/22 02:33:51;;;;;;;11.57;5.25;;;;;;;12.43;100.00;99762.19;5255285;28;20428;-77
2024/02/22 02:36:21;;;;;;;8.38;4.53;;;;;;;12.46;100.00;99767.16;5254522;28;20038;-78
2024/02/22 02:38:51;;;;;;;8.55;4.70;;;;;;;12.51;100.00;99766.53;5257908;28;20488;-80
2024/02/22 02:41:22;;;;;;;7.85;4.07;;;;;;;12.54;100.00;99775.00;5258366;28;20020;-76
2024/02/22 02:43:52;;;;;;;11.25;4.68;;;;;;;12.53;100.00;99773.38;5255839;28;20446;-77
2024/02/22 02:46:23;;;;;;;11.38;5.22;;;;;;;12.55;100.00;99759.69;5257756;28;20659;-76
2024/02/22 02:48:54;;;;;;;14.13;4.82;;;;;;;12.51;100.00;99748.53;5255431;28;20047;-75
2024/02/22 02:51:25;;;;;;;8.68;4.15;;;;;;;12.50;100.00;99748.72;5255611;28;20099;-75
2024/02/22 02:53:55;;;;;;;12.20;4.13;;;;;;;12.48;100.00;99738.19;5256913;28;20432;-76
2024/02/22 02:56:26;;;;;;;13.85;4.55;;;;;;;12.36;100.00;99737.16;5254816;28;20024;-79
2024/02/22 02:58:57;;;;;;;11.63;4.85;;;;;;;12.44;100.00;99742.31;5257067;28;20029;-76
2024/02/22 03:01:27;;;;;;;8.90;4.45;;;;;;;12.47;100.00;99728.47;5256795;28;20032;-76
2024/02/22 03:03:59;;;;;;;11.55;4.63;;;;;;;12.49;100.00;99731.75;5253330;28;20042;-76
2024/02/22 03:06:30;;;;;;;8.15;4.32;;;;;;;12.54;100.00;99728.47;5259433;28;20016;-81
2024/02/22 03:09:02;;;;;;;8.63;4.63;;;;;;;12.53;100.00;99730.31;5250660;28;20026;-76
2024/02/22 03:11:32;;;;;;;11.40;4.20;;;;;;;12.55;100.00;99732.78;5258576;28;20085;-76
2024/02/22 03:14:03;;;;;;;9.63;4.13;;;;;;;12.51;100.00;99723.50;5256425;28;20498;-76
2024/02/22 03:16:37;;;;;;;11.57;4.30;;;;;;;12.43;100.00;99714.59;5251971;28;20381;-76
2024/02/22 03:19:09;;;;;;;11.93;4.95;;;;;;;12.49;100.00;99717.50;5255928;28;20020;-82
2024/02/22 03:21:39;;;;;;;8.73;4.05;;;;;;;12.43;100.00;99708.38;5251506;28;20439;-76
2024/02/22 03:24:10;;;;;;;9.60;4.63;;;;;;;12.47;100.00;99709.63;5255790;28;20525;-76
2024/02/22 03:26:46;;;;;;;8.38;4.28;;;;;;;12.45;100.00;99709.03;5257750;28;20027;-78
2024/02/22 03:29:16;;;;;;;13.25;5.20;;;;;;;12.44;100.00;99700.09;5253351;28;20117;-76
2024/02/22 03:31:47;;;;;;;7.00;4.22;;;;;;;12.42;100.00;99699.50;5256096;28;20024;-79
2024/02/22 03:34:17;;;;;;;7.70;4.35;;;;;;;12.39;100.00;99705.28;5253717;28;20039;-78
2024/02/22 03:36:48;;;;;;;11.98;4.82;;;;;;;12.38;100.00;99695.53;5259120;28;20008;-76
2024/02/22 03:39:20;;;;;;;7.97;4.18;;;;;;;12.30;100.00;99687.69;5254231;28;20110;-79
2024/02/22 03:41:52;;;;;;;9.02;4.35;;;;;;;12.29;100.00;99688.72;5252895;28;20020;-80
2024/02/22 03:44:22;;;;;;;12.80;4.30;;;;;;;12.24;100.00;99693.88;5251864;28;20058;-76
2024/02/22 03:46:53;;;;;;;10.63;4.18;;;;;;;12.30;100.00;99689.53;5256756;28;20040;-80
2024/02/22 03:49:23;;;;;;;11.25;5.22;;;;;;;12.28;100.00;99679.00;5252892;28;20025;-76
2024/02/22 03:51:54;;;;;;;7.70;3.90;;;;;;;12.29;100.00;99677.13;5250708;28;20111;-76
2024/02/22 03:54:25;;;;;;;10.15;4.47;;;;;;;12.24;100.00;99682.28;5259708;28;20024;-78
2024/02/22 03:56:56;;;;;;;8.27;4.75;;;;;;;12.12;100.00;99672.16;5254585;28;20035;-77
2024/02/22 03:59:27;;;;;;;12.25;4.78;;;;;;;12.19;100.00;99661.41;5250517;28;20020;-76
2024/02/22 04:01:57;;;;;;;13.05;5.13;;;;;;;12.14;100.00;99666.56;5254169;28;20107;-80
2024/02/22 04:04:28;;;;;;;9.02;4.30;;;;;;;12.11;100.00;99651.69;5255404;28;20102;-77
2024/02/22 04:06:59;;;;;;;8.63;4.50;;;;;;;12.09;100.00;99644.84;5253562;28;20044;-76
2024/02/22 04:09:29;;;;;;;6.47;3.95;;;;;;;11.94;100.00;99653.09;5255019;28;20543;-78
2024/02/22 04:11:59;;;;;;;10.68;4.82;;;;;;;12.01;100.00;99645.88;5250632;28;20024;-77
2024/02/22 04:14:30;;;;;;;8.73;4.32;;;;;;;12.04;100.00;99637.41;5246936;28;20021;-76
2024/02/22 04:17:00;;;;;;;9.65;4.53;;;;;;;12.04;100.00;99640.06;5252515;28;20048;-76
2024/02/22 04:19:31;;;;;;;5.72;4.05;;;;;;;12.03;100.00;99634.91;5249429;28;20047;-76
2024/02/22 04:22:02;;;;;;;6.32;3.10;;;;;;;11.91;100.00;99629.31;5251441;28;20036;-80
2024/02/22 04:24:33;;;;;;;8.93;3.70;;;;;;;11.97;100.00;99622.31;5254856;28;20499;-76
2024/02/22 04:27:03;;;;;;;9.27;3.78;;;;;;;12.03;100.00;99624.16;5250507;28;20024;-76
2024/02/22 04:29:35;;;;;;;9.55;3.55;;;;;;;12.09;100.00;99612.59;5255809;28;20024;-78
2024/02/22 04:32:06;;;;;;;9.80;3.15;;;;;;;12.10;100.00;99616.94;5257076;28;20040;-79
2024/02/22 04:34:36;;;;;;;6.97;3.70;;;;;;;12.11;100.00;99605.16;5254770;28;20058;-78
2024/02/22 04:37:07;;;;;;;8.32;3.30;;;;;;;12.12;100.00;99607.63;5254546;28;20131;-76
2024/02/22 04:39:37;;;;;;;6.38;3.22;;;;;;;12.12;100.00;99610.31;5252982;28;20024;-76
2024/02/22 04:42:08;;;;;;;7.63;3.55;;;;;;;12.11;100.00;99608.66;5251991;28;20521;-80
2024/02/22 04:44:39;;;;;;;7.55;2.85;;;;;;;12.11;100.00;99605.16;5250452;28;20028;-77
2024/02/22 04:47:09;;;;;;;4.85;3.17;;;;;;;12.07;100.00;99598.53;5246606;28;20035;-79
2024/02/22 04:49:40;;;;;;;6.43;3.03;;;;;;;12.02;100.00;99593.78;5253372;28;20032;-78
2024/02/22 04:52:10;;;;;;;6.10;3.05;;;;;;;11.95;100.00;99594.78;5252363;28;20027;-78
2024/02/22 04:54:41;;;;;;;6.32;2.88;;;;;;;12.03;100.00;99598.09;5257820;28;20028;-76
2024/02/22 04:57:11;;;;;;;10.23;3.42;;;;;;;12.04;100.00;99594.38;5250797;28;20027;-76
2024/02/22 04:59:41;;;;;;;14.57;3.72;;;;;;;12.05;100.00;99598.75;5256487;28;20055;-76
2024/02/22 05:02:12;;;;;;;6.25;3.33;;;;;;;12.06;100.00;99599.56;5247032;28;20029;-76
2024/02/22 05:04:43;;;;;;;10.63;5.90;;;;;;;12.04;100.00;99605.13;5248064;28;20047;-76
2024/02/22 05:07:14;;;;;;;12.05;5.10;;;;;;;12.04;100.00;99602.44;5248352;28;20028;-76
2024/02/22 05:09:45;;;;;;;13.80;4.55;;;;;;;12.04;100.00;99602.44;5250064;28;20474;-76
2024/02/22 05:12:16;;;;;;;8.75;4.75;;;;;;;12.03;100.00;99598.09;5252389;28;20028;-77
2024/02/22 05:14:46;;;;;;;11.70;3.97;;;;;;;12.01;100.00;99592.13;5252505;28;20039;-79
2024/02/22 05:17:19;;;;;;;9.00;3.60;;;;;;;12.00;100.00;99563.59;5250718;28;20025;-78
2024/02/22 05:19:49;;;;;;;10.00;3.83;;;;;;;11.98;100.00;99552.22;5253114;28;20028;-77
2024/02/22 05:22:20;;;;;;;9.38;2.83;;;;;;;11.95;100.00;99554.47;5251701;28;20031;-76
2024/02/22 05:24:50;;;;;;;9.02;3.75;;;;;;;11.90;100.00;99552.44;5255613;28;20035;-76
2024/02/22 05:27:20;;;;;;;7.15;3.13;;;;;;;11.88;100.00;99555.31;5247462;28;20035;-79
2024/02/22 05:29:51;;;;;;;10.02;3.45;;;;;;;11.81;100.00;99546.41;5254819;28;20077;-78
2024/02/22 05:32:22;;;;;;;12.73;3.53;;;;;;;11.75;100.00;99541.03;5250176;28;20127;-76
2024/02/22 05:34:53;;;;;;;8.43;3.30;;;;;;;11.64;100.00;99539.75;5252250;28;20051;-78
2024/02/22 05:37:23;;;;;;;4.82;3.35;;;;;;;11.54;100.00;99544.69;5245528;28;20075;-77
2024/02/22 05:39:55;;;;;;;9.13;3.60;;;;;;;11.48;100.00;99537.47;5255541;28;20020;-76
2024/02/22 05:42:25;;;;;;;6.68;3.25;;;;;;;11.43;100.00;99545.31;5248297;28;20375;-79
2024/02/22 05:44:56;;;;;;;9.32;3.50;;;;;;;11.39;100.00;99526.91;5247630;28;20024;-76
2024/02/22 05:47:26;;;;;;;8.20;3.50;;;;;;;11.39;100.00;99512.66;5250669;28;20024;-76
2024/02/22 05:49:57;;;;;;;13.18;3.90;;;;;;;11.36;100.00;99516.59;5250555;28;20115;-76
2024/02/22 05:52:27;;;;;;;10.88;4.43;;;;;;;11.32;100.00;99517.19;5248297;28;20024;-79
2024/02/22 05:54:57;;;;;;;8.40;3.60;;;;;;;11.34;100.00;99501.69;5251413;28;20028;-77
2024/02/22 05:57:28;;;;;;;9.80;4.00;;;;;;;11.31;100.00;99494.06;5244391;28;20028;-80
2024/02/22 05:59:58;;;;;;;8.27;3.47;;;;;;;11.19;100.00;99496.50;5243704;28;20024;-76
2024/02/22 06:02:29;;;;;;;7.00;3.17;;;;;;;11.06;100.00;99491.94;5252866;28;20039;-76
2024/02/22 06:04:59;;;;;;;7.95;4.57;;;;;;;11.09;100.00;99488.00;5250304;28;20058;-81
2024/02/22 06:07:30;;;;;;;10.40;3.35;;;;;;;11.02;100.00;99492.53;5242085;28;20107;-78
2024/02/22 06:10:00;;;;;;;10.50;3.50;;;;;;;10.97;100.00;99481.59;5244524;28;20097;-76
2024/02/22 06:12:31;;;;;;;14.10;3.70;;;;;;;10.94;100.00;99465.88;5244071;28;20028;-76
2024/02/22 06:15:03;;;;;;;7.03;3.78;;;;;;;10.92;100.00;99473.31;5247311;28;20078;-79
2024/02/22 06:17:34;;;;;;;7.72;3.30;;;;;;;10.87;100.00;99477.44;5251736;28;20441;-79
2024/02/22 06:20:05;;;;;;;10.35;3.78;;;;;;;10.87;100.00;99469.38;5249447;28;20119;-76
2024/02/22 06:22:36;;;;;;;7.07;4.20;;;;;;;10.82;100.00;99457.59;5253192;28;20107;-78
2024/02/22 06:25:07;;;;;;;9.02;3.70;;;;;;;10.74;100.00;99463.13;5242972;28;20442;-77
2024/02/22 06:27:42;;;;;;;12.48;4.70;;;;;;;10.62;100.00;99461.03;5252784;28;20110;-75
2024/02/22 06:30:14;;;;;;;11.25;3.95;;;;;;;10.56;100.00;99451.09;5240793;28;20031;-77
2024/02/22 06:32:45;;;;;;;5.95;2.85;;;;;;;10.53;100.00;99462.22;5248293;28;20107;-79
2024/02/22 06:35:17;;;;;;;7.82;3.28;;;;;;;10.57;100.00;99452.75;5248317;28;20536;-76
2024/02/22 06:37:48;;;;;;;6.97;2.70;;;;;;;10.67;100.00;99435.47;5249953;28;20153;-76
2024/02/22 06:40:19;;;;;;;5.93;2.05;;;;;;;10.67;100.00;99435.47;5248423;28;20031;-76
2024/02/22 06:42:49;;;;;;;3.40;2.13;;;;;;;10.64;100.00;99423.28;5245306;28;20397;-76
2024/02/22 06:45:23;;;;;;;4.05;1.88;;;;;;;10.68;100.00;99429.91;5247531;28;20033;-76
2024/02/22 06:47:54;;;;;;;2.58;1.50;;;;;;;10.69;100.00;99428.84;5245595;28;20024;-76
2024/02/22 06:50:24;;;;;;;6.32;2.03;;;;;;;10.64;100.00;99417.91;5247162;28;20025;-79
2024/02/22 06:52:55;;;;;;;6.03;1.95;;;;;;;10.61;100.00;99404.91;5248150;28;20496;-78
2024/02/22 06:55:26;;;;;;;6.00;2.67;;;;;;;10.61;100.00;99410.28;5248152;28;20032;-77
2024/02/22 06:57:56;;;;;;;3.45;2.55;;;;;;;10.55;100.00;99403.88;5248262;28;20593;-76
2024/02/22 07:00:27;;;;;;;11.90;3.47;;;;;;;10.48;100.00;99407.53;5245707;28;20147;-76
2024/02/22 07:02:57;;;;;;;4.18;2.35;;;;;;;10.37;100.00;99407.09;5249351;28;20095;-76
2024/02/22 07:05:29;;;;;;;3.30;2.30;;;;;;;10.33;100.00;99396.97;5248345;28;20028;-77
2024/02/22 07:07:59;;;;;;;7.57;2.80;;;;;;;10.27;100.00;99397.78;5245077;28;20016;-76
2024/02/22 07:10:30;;;;;;;9.35;3.03;;;;;;;10.18;100.00;99381.00;5248758;28;20031;-76
2024/02/22 07:13:01;;;;;;;5.25;2.90;;;;;;;10.19;100.00;99376.47;5248319;28;20027;-78
2024/02/22 07:15:31;;;;;;;8.63;2.88;;;;;;;10.13;100.00;99365.50;5250027;28;20028;-79
2024/02/22 07:18:02;;;;;;;8.65;3.15;;;;;;;10.14;100.00;99363.69;5246576;28;20027;-77
2024/02/22 07:20:32;;;;;;;4.18;2.42;;;;;;;10.13;100.00;99368.19;5247718;28;20388;-76
2024/02/22 07:23:03;;;;;;;5.60;2.90;;;;;;;10.13;100.00;99372.72;5246060;28;20031;-76
2024/02/22 07:25:34;;;;;;;9.93;2.90;;;;;;;10.30;100.00;99366.03;5252403;28;20063;-78
2024/02/22 07:28:10;;;;;;;4.85;2.90;;;;;;;10.40;100.00;99357.63;5247981;28;20154;-80
2024/02/22 07:30:41;;;;;;;4.40;2.30;;;;;;;10.53;100.00;99340.72;5251648;28;20023;-76
2024/02/22 07:33:12;;;;;;;4.93;2.30;;;;;;;10.62;100.00;99324.25;5248348;28;20025;-76
2024/02/22 07:35:42;;;;;;;3.70;2.03;;;;;;;10.74;100.00;99319.09;5254644;28;20719;-76
2024/02/22 07:38:13;;;;;;;3.90;2.33;;;;;;;10.79;100.00;99313.13;5248577;28;20017;-76
2024/02/22 07:40:43;;;;;;;6.05;2.58;;;;;;;10.85;100.00;99307.78;5250784;28;20028;-78
2024/02/22 07:43:14;;;;;;;3.33;2.22;;;;;;;10.81;100.00;99303.03;5246248;28;20028;-76
2024/02/22 07:45:44;;;;;;;2.42;1.80;;;;;;;10.81;100.00;99297.69;5247767;28;20481;-81
2024/02/22 07:48:16;;;;;;;3.05;1.95;;;;;;;10.80;100.00;99275.38;5251388;28;20021;-76
2024/02/22 07:50:47;;;;;;;2.72;1.70;;;;;;;10.93;100.00;99269.19;5247423;28;20039;-76
2024/02/22 07:53:17;;;;;;;4.40;1.83;;;;;;;11.02;100.00;99262.59;5249447;28;20029;-76
2024/02/22 07:55:48;;;;;;;3.22;1.95;;;;;;;11.04;100.00;99243.56;5247990;28;20024;-79
2024/02/22 07:58:18;;;;;;;4.65;2.17;;;;;;;11.09;100.00;99236.59;5248811;28;20154;-81
2024/02/22 08:00:49;;;;;;;3.80;1.90;;;;;;;11.17;100.00;99235.53;5244515;28;20017;-76
2024/02/22 08:03:20;;;;;;;2.10;1.52;;;;;;;11.31;100.00;99230.97;5249828;28;20504;-77
2024/02/22 08:05:52;;;;;;;3.70;1.90;;;;;;;11.30;100.00;99230.13;5247477;28;20020;-76
2024/02/22 08:08:23;;;;;;;3.60;1.83;;;;;;;11.38;100.00;99223.69;5248841;28;20028;-76
2024/02/22 08:10:53;;;;;;;2.63;1.67;;;;;;;11.38;100.00;99224.53;5250900;28;20032;-76
2024/02/22 08:13:24;;;;;;;4.72;2.33;;;;;;;11.45;100.00;99226.38;5248075;28;20103;-81
2024/02/22 08:16:13;;;;;;;4.30;1.98;;;;;;;11.43;100.00;99223.88;5247827;28;20028;-77
2024/02/22 08:18:44;;;;;;;4.38;2.28;;;;;;;11.48;100.00;99221.41;5250848;28;20020;-76
2024/02/22 08:21:14;;;;;;;4.47;2.38;;;;;;;11.60;100.00;99227.78;5247068;28;20509;-79
2024/02/22 08:23:45;;;;;;;4.90;2.38;;;;;;;11.66;100.00;99207.28;5246674;28;20478;-76
2024/02/22 08:26:16;;;;;;;4.70;2.80;;;;;;;11.46;100.00;99198.50;5245222;28;20044;-77
2024/02/22 08:28:46;;;;;;;6.45;3.20;;;;;;;11.48;100.00;99161.50;5251402;28;20115;-80
2024/02/22 08:31:17;;;;;;;4.93;3.45;;;;;;;11.55;100.00;99167.69;5243606;28;20032;-77
2024/02/22 08:33:48;;;;;;;6.72;2.95;;;;;;;11.58;100.00;99172.59;5239957;28;20039;-76
2024/02/22 08:36:19;;;;;;;5.32;2.50;;;;;;;11.65;100.00;99160.81;5251432;28;20036;-78
2024/02/22 08:38:49;;;;;;;3.67;2.90;;;;;;;11.76;100.00;99153.13;5246929;28;20024;-76
2024/02/22 08:41:22;;;;;;;4.13;3.00;;;;;;;11.79;100.00;99148.09;5247682;28;20104;-76
2024/02/22 08:43:54;;;;;;;4.35;2.33;;;;;;;11.89;100.00;99145.81;5249386;28;20024;-79
2024/02/22 08:46:24;;;;;;;3.33;2.55;;;;;;;11.82;100.00;99136.16;5249089;28;20539;-76
2024/02/22 08:48:55;;;;;;;4.32;2.53;;;;;;;11.84;100.00;99129.50;5245704;28;20032;-78
2024/02/22 08:51:25;;;;;;;5.18;2.58;;;;;;;11.90;100.00;99133.22;5252409;28;20111;-80
2024/02/22 08:53:56;;;;;;;3.13;2.40;;;;;;;11.93;100.00;99120.16;5250219;28;20363;-76
2024/02/22 08:56:27;;;;;;;3.30;2.60;;;;;;;12.03;100.00;99105.41;5249466;28;20139;-75
2024/02/22 08:58:57;;;;;;;4.65;2.80;;;;;;;11.97;100.00;99104.44;5254748;28;20028;-76
2024/02/22 09:01:29;;;;;;;4.18;2.80;;;;;;;12.08;100.00;99101.03;5250438;28;20043;-79
2024/02/22 09:04:00;;;;;;;5.47;2.95;;;;;;;12.20;100.00;99076.97;5245928;28;20070;-76
2024/02/22 09:06:31;;;;;;;3.50;2.65;;;;;;;12.15;100.00;99068.75;5251286;28;20031;-76
2024/02/22 09:09:05;;;;;;;7.68;3.80;;;;;;;12.22;100.00;99064.13;5253816;28;20046;-76
2024/02/22 09:11:36;;;;;;;7.88;2.65;;;;;;;12.29;100.00;99029.91;5255258;28;20093;-75
2024/02/22 09:14:06;;;;;;;5.75;2.70;;;;;;;12.64;100.00;98999.78;5249784;28;20020;-76
2024/02/22 09:16:39;;;;;;;3.97;2.25;;;;;;;13.32;100.00;99002.25;5254301;28;20436;-81
2024/02/22 09:19:11;;;;;;;1.92;1.63;;;;;;;13.69;100.00;99002.13;5251124;28;20013;-76
2024/02/22 09:21:44;;;;;;;3.22;1.40;;;;;;;13.62;100.00;98986.06;5253099;28;20093;-80
2024/02/22 09:24:15;;;;;;;1.73;1.30;;;;;;;13.66;100.00;98997.22;5250333;28;20024;-76
2024/02/22 09:26:45;;;;;;;1.95;1.50;;;;;;;13.46;100.00;98982.16;5251532;28;20114;-79
2024/02/22 09:29:16;;;;;;;1.50;1.05;;;;;;;13.48;100.00;98984.63;5253537;28;20561;-77
2024/02/22 09:31:46;;;;;;;1.10;1.00;;;;;;;13.09;100.00;98978.72;5253118;28;20389;-78
2024/02/22 09:34:17;;;;;;;1.35;1.05;;;;;;;13.15;100.00;98980.50;5251276;28;20124;-76
2024/02/22 09:36:47;;;;;;;1.10;0.80;;;;;;;13.16;100.00;98963.31;5250353;28;20024;-81
2024/02/22 09:39:19;;;;;;;1.45;0.90;;;;;;;13.19;100.00;98954.75;5248434;28;20044;-77
2024/02/22 09:41:50;;;;;;;1.27;0.90;;;;;;;13.04;100.00;98940.88;5253255;28;20040;-75
2024/02/22 09:44:22;;;;;;;1.88;0.60;;;;;;;13.23;100.00;98939.00;5252264;28;20036;-75
2024/02/22 09:46:54;;;;;;;1.10;0.60;;;;;;;13.23;100.00;98943.56;5252510;28;20444;-76
2024/02/22 09:49:24;;;;;;;1.83;0.90;;;;;;;13.32;100.00;98942.19;5249897;28;20036;-79
2024/02/22 09:51:56;;;;;;;1.55;0.90;;;;;;;13.21;100.00;98933.00;5250426;28;20730;-76
2024/02/22 09:54:27;;;;;;;0.68;0.60;;;;;;;13.12;100.00;98937.88;5251219;28;20409;-76
2024/02/22 09:56:57;;;;;;;6.50;1.60;;;;;;;13.26;100.00;98921.56;5253026;28;20023;-76
2024/02/22 09:59:27;;;;;;;1.90;0.98;;;;;;;13.26;100.00;98926.97;5250795;28;20027;-75
2024/02/22 10:01:59;;;;;;;1.58;0.57;;;;;;;13.13;100.00;98917.97;5246396;28;20033;-80
2024/02/22 10:04:30;;;;;;;2.38;0.80;;;;;;;12.86;100.00;98901.41;5251975;28;20076;-76
2024/02/22 10:07:01;;;;;;;2.70;0.65;;;;;;;13.08;100.00;98900.88;5248320;28;20397;-79
2024/02/22 10:09:42;;;;;;;2.35;0.70;;;;;;;13.13;100.00;98892.94;5253236;28;20400;-76
2024/02/22 10:12:23;;;;;;;3.38;0.90;;;;;;;13.32;100.00;98882.94;5250719;28;20027;-79
2024/02/22 10:14:54;;;;;;;0.75;0.75;;;;;;;13.25;100.00;98883.03;5248865;28;20055;-76
2024/02/22 10:17:29;;;;;;;3.53;0.73;;;;;;;13.26;100.00;98873.09;5252235;28;20097;-80
2024/02/22 10:20:06;;;;;;;3.85;1.00;;;;;;;13.28;100.00;98871.81;5249328;28;20025;-76
2024/02/22 10:22:37;;;;;;;1.90;0.90;;;;;;;13.50;100.00;98866.66;5249686;28;20024;-76
2024/02/22 10:25:15;;;;;;;0.90;0.90;;;;;;;13.33;100.00;98863.03;5249461;28;20025;-76
2024/02/22 10:27:49;;;;;;;1.65;1.00;;;;;;;13.30;100.00;98847.31;5249564;28;20106;-76
2024/02/22 10:30:26;;;;;;;2.35;1.10;;;;;;;13.14;100.00;98846.09;5250378;28;20028;-76
2024/02/22 10:32:59;;;;;;;1.92;1.13;;;;;;;13.21;100.00;98834.22;5225456;28;20028;-80
2024/02/22 10:35:33;;;;;;;3.58;1.10;;;;;;;13.21;100.00;98826.16;5241461;28;20067;-75
2024/02/22 10:38:05;;;;;;;2.55;0.93;;;;;;;13.23;100.00;98820.53;5247514;28;20059;-76
2024/02/22 10:40:35;;;;;;;2.28;1.23;;;;;;;13.34;100.00;98826.97;5248898;28;20477;-78
2024/02/22 10:43:10;;;;;;;1.30;1.17;;;;;;;13.20;100.00;98811.03;5243393;28;20039;-79
2024/02/22 10:45:41;;;;;;;3.28;1.33;;;;;;;13.28;100.00;98798.28;5249052;28;20124;-80
2024/02/22 10:48:12;;;;;;;3.50;1.10;;;;;;;13.41;100.00;98785.41;5250599;28;20096;-76
2024/02/22 10:50:44;;;;;;;2.97;1.35;;;;;;;13.37;100.00;98789.63;5250966;28;20046;-77
2024/02/22 10:53:16;;;;;;;1.73;0.95;;;;;;;13.34;100.00;98787.38;5250181;28;20029;-80
2024/02/22 10:55:49;;;;;;;3.15;1.23;;;;;;;13.51;100.00;98787.53;5246603;28;20048;-77
2024/02/22 10:58:23;;;;;;;1.42;1.00;;;;;;;13.45;100.00;98786.59;5250826;28;20029;-76
2024/02/22 11:00:56;;;;;;;1.25;1.00;;;;;;;13.15;100.00;98764.28;5251694;28;20354;-80
2024/02/22 11:03:28;;;;;;;2.65;1.30;;;;;;;13.24;100.00;98757.53;5246454;28;20024;-77
2024/02/22 11:06:03;;;;;;;1.38;1.00;;;;;;;13.20;100.00;98748.25;5249097;28;20032;-77
2024/02/22 11:08:34;;;;;;;;;;;;;;;13.43;100.00;98736.69;5254444;28;20020;-79
2024/02/22 11:11:07;;;;;;;1.83;1.20;;;;;;;13.38;100.00;98720.41;5253317;28;20369;-77
2024/02/22 11:13:37;;;;;;;2.42;1.10;;;;;;;13.33;100.00;98717.63;5253068;28;20062;-80
2024/02/22 11:16:13;;;;;;;1.88;1.27;;;;;;;13.44;100.00;98709.50;5248028;28;20104;-76
2024/02/22 11:18:46;;;;;;;1.15;0.95;;;;;;;13.39;100.00;98695.94;5251584;28;20058;-78
2024/02/22 11:21:17;;;;;;;1.45;0.93;;;;;;;13.40;100.00;98677.91;5248814;28;20032;-77
2024/02/22 11:23:48;;;;;;;1.10;0.90;;;;;;;13.45;100.00;98688.78;5252865;28;20028;-80
2024/02/22 11:26:19;;;;;;;1.42;0.90;;;;;;;13.55;100.00;98675.53;5256713;28;20036;-79
2024/02/22 11:28:55;;;;;;;1.55;0.93;;;;;;;13.70;100.00;98661.53;5252284;28;20035;-77
2024/02/22 11:31:27;;;;;;;1.40;0.77;;;;;;;13.58;100.00;98652.69;5254689;28;20032;-81
2024/02/22 11:33:58;;;;;;;0.75;0.75;;;;;;;13.77;100.00;98643.38;5250331;28;20013;-76
2024/02/22 11:36:30;;;;;;;0.98;0.50;;;;;;;13.77;100.00;98631.78;5251696;28;20036;-76
2024/02/22 11:39:04;;;;;;;0.82;0.63;;;;;;;13.77;100.00;98626.38;5248990;28;20017;-78
2024/02/22 11:41:34;;;;;;;1.40;0.45;;;;;;;13.86;100.00;98622.25;5250338;28;20031;-81
2024/02/22 11:44:07;;;;;;;0.90;0.57;;;;;;;13.72;100.00;98609.06;5247423;28;20028;-76